sensor_id;sensor_type;location;lat;lon;timestamp;pressure;altitude;pressure_sealevel;temperature;humidity
3250;BME280;1637;42.020;23.992;2022-10-17T00:00:46;94134.94;;;3.76;92.74
3250;BME280;1637;42.020;23.992;2022-10-17T00:03:12;94129.09;;;4.03;90.44
3250;BME280;1637;42.020;23.992;2022-10-17T00:05:40;94137.91;;;3.74;90.90
3250;BME280;1637;42.020;23.992;2022-10-17T00:08:08;94128.63;;;3.48;93.68
3250;BME280;1637;42.020;23.992;2022-10-17T00:10:35;94134.44;;;3.83;91.78
3250;BME280;1637;42.020;23.992;2022-10-17T00:13:04;94136.25;;;3.49;92.96
3250;BME280;1637;42.020;23.992;2022-10-17T00:15:31;94141.16;;;3.59;92.94
3250;BME280;1637;42.020;23.992;2022-10-17T00:18:00;94137.91;;;3.54;92.78
3250;BME280;1637;42.020;23.992;2022-10-17T00:20:27;94136.91;;;3.46;93.46
3250;BME280;1637;42.020;23.992;2022-10-17T00:22:54;94140.56;;;3.33;94.38
3250;BME280;1637;42.020;23.992;2022-10-17T00:25:21;94137.84;;;3.21;95.21
3250;BME280;1637;42.020;23.992;2022-10-17T00:27:48;94151.94;;;2.74;97.44
3250;BME280;1637;42.020;23.992;2022-10-17T00:30:16;94143.19;;;2.83;98.52
3250;BME280;1637;42.020;23.992;2022-10-17T00:32:43;94145.31;;;2.51;98.92
3250;BME280;1637;42.020;23.992;2022-10-17T00:35:10;94150.22;;;2.79;98.70
3250;BME280;1637;42.020;23.992;2022-10-17T00:37:37;94144.78;;;3.04;97.96
3250;BME280;1637;42.020;23.992;2022-10-17T00:40:05;94135.59;;;3.10;96.60
3250;BME280;1637;42.020;23.992;2022-10-17T00:42:32;94140.91;;;3.02;96.35
3250;BME280;1637;42.020;23.992;2022-10-17T00:45:06;94147.78;;;2.94;96.02
3250;BME280;1637;42.020;23.992;2022-10-17T00:47:35;94150.91;;;2.96;96.80
3250;BME280;1637;42.020;23.992;2022-10-17T00:50:04;94136.59;;;3.18;95.14
3250;BME280;1637;42.020;23.992;2022-10-17T00:52:32;94137.84;;;2.91;96.56
3250;BME280;1637;42.020;23.992;2022-10-17T00:55:02;94147.09;;;2.76;97.35
3250;BME280;1637;42.020;23.992;2022-10-17T00:57:32;94135.09;;;2.88;97.03
3250;BME280;1637;42.020;23.992;2022-10-17T01:00:01;94135.19;;;2.62;97.71
3250;BME280;1637;42.020;23.992;2022-10-17T01:02:29;94134.38;;;2.70;97.39
3250;BME280;1637;42.020;23.992;2022-10-17T01:04:57;94141.72;;;2.94;97.48
3250;BME280;1637;42.020;23.992;2022-10-17T01:07:25;94136.97;;;2.79;97.92
3250;BME280;1637;42.020;23.992;2022-10-17T01:09:53;94139.47;;;2.75;99.02
3250;BME280;1637;42.020;23.992;2022-10-17T01:12:23;94124.06;;;2.48;100.00
3250;BME280;1637;42.020;23.992;2022-10-17T01:15:00;94127.25;;;2.24;100.00
3250;BME280;1637;42.020;23.992;2022-10-17T01:17:34;94138.94;;;2.05;100.00
3250;BME280;1637;42.020;23.992;2022-10-17T01:20:28;94134.41;;;2.15;100.00
3250;BME280;1637;42.020;23.992;2022-10-17T01:23:19;94136.16;;;1.93;100.00
3250;BME280;1637;42.020;23.992;2022-10-17T01:25:55;94144.50;;;2.21;100.00
3250;BME280;1637;42.020;23.992;2022-10-17T01:28:36;94143.28;;;1.93;100.00
3250;BME280;1637;42.020;23.992;2022-10-17T01:31:11;94143.91;;;1.98;100.00
3250;BME280;1637;42.020;23.992;2022-10-17T01:33:56;94134.59;;;1.92;100.00
3250;BME280;1637;42.020;23.992;2022-10-17T01:36:38;94141.78;;;1.83;100.00
3250;BME280;1637;42.020;23.992;2022-10-17T01:39:13;94147.03;;;1.92;100.00
3250;BME280;1637;42.020;23.992;2022-10-17T01:41:45;94145.28;;;2.13;100.00
3250;BME280;1637;42.020;23.992;2022-10-17T01:44:18;94144.88;;;1.85;100.00
3250;BME280;1637;42.020;23.992;2022-10-17T01:46:50;94147.22;;;1.87;100.00
3250;BME280;1637;42.020;23.992;2022-10-17T01:49:21;94150.47;;;1.75;100.00
3250;BME280;1637;42.020;23.992;2022-10-17T01:51:54;94145.13;;;2.18;100.00
3250;BME280;1637;42.020;23.992;2022-10-17T01:54:25;94151.09;;;2.53;100.00
3250;BME280;1637;42.020;23.992;2022-10-17T01:56:57;94120.50;;;2.35;98.28
3250;BME280;1637;42.020;23.992;2022-10-17T01:59:28;94152.75;;;2.66;96.95
3250;BME280;1637;42.020;23.992;2022-10-17T02:02:00;94153.25;;;2.60;97.32
3250;BME280;1637;42.020;23.992;2022-10-17T02:04:27;94153.56;;;2.50;96.94
3250;BME280;1637;42.020;23.992;2022-10-17T02:06:54;94157.47;;;2.52;95.70
3250;BME280;1637;42.020;23.992;2022-10-17T02:09:23;94153.16;;;2.30;96.62
3250;BME280;1637;42.020;23.992;2022-10-17T02:12:02;94153.41;;;2.55;95.54
3250;BME280;1637;42.020;23.992;2022-10-17T02:14:40;94161.94;;;2.60;94.49
3250;BME280;1637;42.020;23.992;2022-10-17T02:17:18;94164.75;;;2.55;94.38
3250;BME280;1637;42.020;23.992;2022-10-17T02:19:57;94161.50;;;2.50;95.06
3250;BME280;1637;42.020;23.992;2022-10-17T02:22:35;94169.03;;;2.30;95.47
3250;BME280;1637;42.020;23.992;2022-10-17T02:25:08;94168.91;;;2.18;97.76
3250;BME280;1637;42.020;23.992;2022-10-17T02:27:42;94171.09;;;2.16;98.36
3250;BME280;1637;42.020;23.992;2022-10-17T02:30:14;94178.97;;;2.42;96.04
3250;BME280;1637;42.020;23.992;2022-10-17T02:32:50;94169.28;;;1.82;98.96
3250;BME280;1637;42.020;23.992;2022-10-17T02:35:19;94179.66;;;1.70;100.00
3250;BME280;1637;42.020;23.992;2022-10-17T02:37:47;94183.72;;;1.59;100.00
3250;BME280;1637;42.020;23.992;2022-10-17T02:40:16;94179.19;;;1.51;100.00
3250;BME280;1637;42.020;23.992;2022-10-17T02:42:45;94182.91;;;1.32;100.00
3250;BME280;1637;42.020;23.992;2022-10-17T02:45:13;94182.31;;;1.53;100.00
3250;BME280;1637;42.020;23.992;2022-10-17T02:47:49;94182.75;;;1.37;100.00
3250;BME280;1637;42.020;23.992;2022-10-17T02:50:25;94175.16;;;1.53;100.00
3250;BME280;1637;42.020;23.992;2022-10-17T02:52:57;94180.75;;;1.43;100.00
3250;BME280;1637;42.020;23.992;2022-10-17T02:55:29;94184.03;;;1.57;100.00
3250;BME280;1637;42.020;23.992;2022-10-17T02:58:01;94177.50;;;1.55;100.00
3250;BME280;1637;42.020;23.992;2022-10-17T03:00:28;94179.78;;;2.08;100.00
3250;BME280;1637;42.020;23.992;2022-10-17T03:02:58;94187.41;;;2.10;98.19
3250;BME280;1637;42.020;23.992;2022-10-17T03:05:26;94185.41;;;1.72;99.00
3250;BME280;1637;42.020;23.992;2022-10-17T03:07:54;94185.13;;;1.65;100.00
3250;BME280;1637;42.020;23.992;2022-10-17T03:10:22;94176.72;;;1.63;100.00
3250;BME280;1637;42.020;23.992;2022-10-17T03:12:49;94177.97;;;1.83;100.00
3250;BME280;1637;42.020;23.992;2022-10-17T03:15:16;94181.84;;;1.94;97.95
3250;BME280;1637;42.020;23.992;2022-10-17T03:17:43;94188.69;;;1.86;98.79
3250;BME280;1637;42.020;23.992;2022-10-17T03:20:11;94183.53;;;1.90;98.03
3250;BME280;1637;42.020;23.992;2022-10-17T03:22:38;94190.84;;;1.67;98.38
3250;BME280;1637;42.020;23.992;2022-10-17T03:25:05;94185.41;;;1.55;100.00
3250;BME280;1637;42.020;23.992;2022-10-17T03:27:32;94185.88;;;1.57;99.78
3250;BME280;1637;42.020;23.992;2022-10-17T03:29:58;94181.19;;;1.36;100.00
3250;BME280;1637;42.020;23.992;2022-10-17T03:32:25;94195.53;;;0.96;100.00
3250;BME280;1637;42.020;23.992;2022-10-17T03:34:52;94198.50;;;0.94;100.00
3250;BME280;1637;42.020;23.992;2022-10-17T03:37:20;94198.06;;;1.10;100.00
3250;BME280;1637;42.020;23.992;2022-10-17T03:39:47;94193.25;;;1.03;100.00
3250;BME280;1637;42.020;23.992;2022-10-17T03:42:14;94192.13;;;1.04;100.00
3250;BME280;1637;42.020;23.992;2022-10-17T03:44:40;94202.09;;;1.07;100.00
3250;BME280;1637;42.020;23.992;2022-10-17T03:47:07;94237.56;;;1.32;100.00
3250;BME280;1637;42.020;23.992;2022-10-17T03:49:34;94200.91;;;1.30;98.69
3250;BME280;1637;42.020;23.992;2022-10-17T03:52:01;94203.53;;;1.30;99.54
3250;BME280;1637;42.020;23.992;2022-10-17T03:54:29;94199.19;;;1.17;100.00
3250;BME280;1637;42.020;23.992;2022-10-17T03:56:56;94208.03;;;1.30;99.42
3250;BME280;1637;42.020;23.992;2022-10-17T03:59:23;94203.84;;;1.20;100.00
3250;BME280;1637;42.020;23.992;2022-10-17T04:01:50;94206.88;;;0.96;100.00
3250;BME280;1637;42.020;23.992;2022-10-17T04:04:16;94205.66;;;1.02;100.00
3250;BME280;1637;42.020;23.992;2022-10-17T04:06:43;94203.50;;;1.13;100.00
3250;BME280;1637;42.020;23.992;2022-10-17T04:09:10;94208.34;;;1.20;100.00
3250;BME280;1637;42.020;23.992;2022-10-17T04:11:38;94201.94;;;1.03;100.00
3250;BME280;1637;42.020;23.992;2022-10-17T04:14:05;94199.22;;;0.78;100.00
3250;BME280;1637;42.020;23.992;2022-10-17T04:16:32;94206.16;;;0.74;100.00
3250;BME280;1637;42.020;23.992;2022-10-17T04:18:59;94200.25;;;0.68;100.00
3250;BME280;1637;42.020;23.992;2022-10-17T04:21:27;94211.00;;;0.80;100.00
3250;BME280;1637;42.020;23.992;2022-10-17T04:23:54;94187.09;;;0.37;100.00
3250;BME280;1637;42.020;23.992;2022-10-17T04:26:22;94196.63;;;0.95;100.00
3250;BME280;1637;42.020;23.992;2022-10-17T04:28:50;94206.59;;;1.07;98.62
3250;BME280;1637;42.020;23.992;2022-10-17T04:31:17;94206.00;;;0.70;100.00
3250;BME280;1637;42.020;23.992;2022-10-17T04:33:46;94197.31;;;0.69;100.00
3250;BME280;1637;42.020;23.992;2022-10-17T04:36:15;94194.41;;;0.80;100.00
3250;BME280;1637;42.020;23.992;2022-10-17T04:38:42;94196.63;;;0.55;100.00
3250;BME280;1637;42.020;23.992;2022-10-17T04:41:11;94206.69;;;0.53;100.00
3250;BME280;1637;42.020;23.992;2022-10-17T04:43:38;94208.56;;;0.53;100.00
3250;BME280;1637;42.020;23.992;2022-10-17T04:46:08;94204.25;;;1.05;100.00
3250;BME280;1637;42.020;23.992;2022-10-17T04:48:36;94211.34;;;0.87;100.00
3250;BME280;1637;42.020;23.992;2022-10-17T04:51:05;94211.25;;;0.61;100.00
3250;BME280;1637;42.020;23.992;2022-10-17T04:53:33;94223.13;;;0.81;100.00
3250;BME280;1637;42.020;23.992;2022-10-17T04:56:05;94223.19;;;0.98;100.00
3250;BME280;1637;42.020;23.992;2022-10-17T04:58:32;94232.00;;;1.68;100.00
3250;BME280;1637;42.020;23.992;2022-10-17T05:01:03;94238.41;;;2.27;97.04
3250;BME280;1637;42.020;23.992;2022-10-17T05:03:32;94244.44;;;2.45;94.59
3250;BME280;1637;42.020;23.992;2022-10-17T05:06:03;94245.41;;;2.23;94.65
3250;BME280;1637;42.020;23.992;2022-10-17T05:08:31;94250.84;;;2.10;93.92
3250;BME280;1637;42.020;23.992;2022-10-17T05:10:58;94254.56;;;1.74;95.45
3250;BME280;1637;42.020;23.992;2022-10-17T05:13:24;94252.69;;;1.66;97.28
3250;BME280;1637;42.020;23.992;2022-10-17T05:15:51;94257.53;;;2.07;97.45
3250;BME280;1637;42.020;23.992;2022-10-17T05:18:18;94257.88;;;2.87;92.24
3250;BME280;1637;42.020;23.992;2022-10-17T05:20:46;94263.34;;;3.58;86.81
3250;BME280;1637;42.020;23.992;2022-10-17T05:23:13;94264.88;;;4.63;82.85
3250;BME280;1637;42.020;23.992;2022-10-17T05:25:40;94269.50;;;4.54;81.03
3250;BME280;1637;42.020;23.992;2022-10-17T05:28:07;94278.66;;;5.59;77.91
3250;BME280;1637;42.020;23.992;2022-10-17T05:30:34;94280.41;;;5.42;75.99
3250;BME280;1637;42.020;23.992;2022-10-17T05:33:01;94282.13;;;6.36;74.19
3250;BME280;1637;42.020;23.992;2022-10-17T05:35:28;94295.50;;;6.79;71.74
3250;BME280;1637;42.020;23.992;2022-10-17T05:37:57;94287.50;;;6.79;71.43
3250;BME280;1637;42.020;23.992;2022-10-17T05:40:24;94290.69;;;7.44;69.52
3250;BME280;1637;42.020;23.992;2022-10-17T05:42:51;94291.94;;;8.48;67.52
3250;BME280;1637;42.020;23.992;2022-10-17T05:45:18;94288.84;;;8.85;65.40
3250;BME280;1637;42.020;23.992;2022-10-17T05:47:44;94295.50;;;9.37;64.86
3250;BME280;1637;42.020;23.992;2022-10-17T05:50:11;94303.97;;;10.11;62.28
3250;BME280;1637;42.020;23.992;2022-10-17T05:52:38;94307.78;;;10.66;59.42
3250;BME280;1637;42.020;23.992;2022-10-17T05:55:07;94298.63;;;10.37;59.82
3250;BME280;1637;42.020;23.992;2022-10-17T05:57:34;94304.06;;;9.69;60.89
3250;BME280;1637;42.020;23.992;2022-10-17T06:00:01;94308.16;;;8.98;63.04
3250;BME280;1637;42.020;23.992;2022-10-17T06:02:28;94320.72;;;9.16;62.61
3250;BME280;1637;42.020;23.992;2022-10-17T06:04:55;94314.59;;;9.16;63.66
3250;BME280;1637;42.020;23.992;2022-10-17T06:07:21;94313.84;;;9.38;64.10
3250;BME280;1637;42.020;23.992;2022-10-17T06:09:48;94309.28;;;9.39;63.08
3250;BME280;1637;42.020;23.992;2022-10-17T06:12:16;94318.69;;;9.75;62.94
3250;BME280;1637;42.020;23.992;2022-10-17T06:14:43;94325.31;;;10.60;60.37
3250;BME280;1637;42.020;23.992;2022-10-17T06:17:10;94324.63;;;10.66;60.68
3250;BME280;1637;42.020;23.992;2022-10-17T06:19:37;94330.41;;;10.68;60.54
3250;BME280;1637;42.020;23.992;2022-10-17T06:22:05;94337.06;;;10.78;59.17
3250;BME280;1637;42.020;23.992;2022-10-17T06:24:32;94338.66;;;10.86;61.20
3250;BME280;1637;42.020;23.992;2022-10-17T06:26:59;94337.91;;;11.56;59.22
3250;BME280;1637;42.020;23.992;2022-10-17T06:29:27;94348.78;;;12.11;57.52
3250;BME280;1637;42.020;23.992;2022-10-17T06:31:54;94362.88;;;13.18;54.79
3250;BME280;1637;42.020;23.992;2022-10-17T06:34:21;94359.81;;;13.19;54.24
3250;BME280;1637;42.020;23.992;2022-10-17T06:36:48;94355.38;;;14.16;52.30
3250;BME280;1637;42.020;23.992;2022-10-17T06:39:15;94359.22;;;14.36;52.09
3250;BME280;1637;42.020;23.992;2022-10-17T06:41:41;94365.63;;;13.35;54.57
3250;BME280;1637;42.020;23.992;2022-10-17T06:44:09;94352.28;;;13.78;54.13
3250;BME280;1637;42.020;23.992;2022-10-17T06:46:38;94351.94;;;14.47;51.82
3250;BME280;1637;42.020;23.992;2022-10-17T06:49:05;94363.69;;;15.28;49.36
3250;BME280;1637;42.020;23.992;2022-10-17T06:51:34;94359.13;;;15.03;51.20
3250;BME280;1637;42.020;23.992;2022-10-17T06:54:02;94359.31;;;15.55;49.65
3250;BME280;1637;42.020;23.992;2022-10-17T06:56:29;94355.34;;;14.76;51.69
3250;BME280;1637;42.020;23.992;2022-10-17T06:58:56;94355.34;;;14.87;50.97
3250;BME280;1637;42.020;23.992;2022-10-17T07:01:23;94346.13;;;14.34;52.50
3250;BME280;1637;42.020;23.992;2022-10-17T07:03:51;94362.81;;;15.48;49.97
3250;BME280;1637;42.020;23.992;2022-10-17T07:06:17;94363.22;;;15.43;50.56
3250;BME280;1637;42.020;23.992;2022-10-17T07:08:45;94356.03;;;15.08;50.97
3250;BME280;1637;42.020;23.992;2022-10-17T07:11:14;94348.84;;;13.99;54.45
3250;BME280;1637;42.020;23.992;2022-10-17T07:13:41;94353.06;;;14.64;53.50
3250;BME280;1637;42.020;23.992;2022-10-17T07:16:09;94356.09;;;14.87;52.52
3250;BME280;1637;42.020;23.992;2022-10-17T07:18:36;94358.34;;;15.13;52.27
3250;BME280;1637;42.020;23.992;2022-10-17T07:21:05;94361.69;;;15.39;51.71
3250;BME280;1637;42.020;23.992;2022-10-17T07:23:33;94363.84;;;16.35;49.43
3250;BME280;1637;42.020;23.992;2022-10-17T07:26:03;94368.03;;;16.84;49.00
3250;BME280;1637;42.020;23.992;2022-10-17T07:28:31;94362.31;;;16.30;50.61
3250;BME280;1637;42.020;23.992;2022-10-17T07:31:02;94374.63;;;15.83;51.28
3250;BME280;1637;42.020;23.992;2022-10-17T07:33:29;94367.84;;;16.16;51.79
3250;BME280;1637;42.020;23.992;2022-10-17T07:35:57;94367.34;;;16.32;50.76
3250;BME280;1637;42.020;23.992;2022-10-17T07:38:26;94363.75;;;16.90;49.40
3250;BME280;1637;42.020;23.992;2022-10-17T07:40:53;94347.91;;;16.89;49.61
3250;BME280;1637;42.020;23.992;2022-10-17T07:43:20;94367.31;;;17.17;49.52
3250;BME280;1637;42.020;23.992;2022-10-17T07:45:47;94363.56;;;17.42;48.98
3250;BME280;1637;42.020;23.992;2022-10-17T07:48:14;94359.56;;;17.20;49.34
3250;BME280;1637;42.020;23.992;2022-10-17T07:50:40;94366.22;;;17.11;50.11
3250;BME280;1637;42.020;23.992;2022-10-17T07:53:07;94356.81;;;18.38;47.40
3250;BME280;1637;42.020;23.992;2022-10-17T07:55:37;94357.59;;;17.54;49.09
3250;BME280;1637;42.020;23.992;2022-10-17T07:58:04;94357.81;;;18.47;47.07
3250;BME280;1637;42.020;23.992;2022-10-17T08:00:31;94358.75;;;18.37;48.05
3250;BME280;1637;42.020;23.992;2022-10-17T08:02:58;94359.41;;;18.92;45.85
3250;BME280;1637;42.020;23.992;2022-10-17T08:05:24;94356.16;;;18.53;47.19
3250;BME280;1637;42.020;23.992;2022-10-17T08:07:51;94351.47;;;17.80;49.13
3250;BME280;1637;42.020;23.992;2022-10-17T08:10:18;94347.25;;;18.30;48.41
3250;BME280;1637;42.020;23.992;2022-10-17T08:12:47;94348.19;;;17.32;49.37
3250;BME280;1637;42.020;23.992;2022-10-17T08:15:14;94356.19;;;18.77;47.08
3250;BME280;1637;42.020;23.992;2022-10-17T08:17:40;94351.69;;;18.90;46.25
3250;BME280;1637;42.020;23.992;2022-10-17T08:20:09;94353.78;;;19.98;43.40
3250;BME280;1637;42.020;23.992;2022-10-17T08:22:36;94360.22;;;20.23;42.73
3250;BME280;1637;42.020;23.992;2022-10-17T08:25:04;94352.84;;;19.88;43.53
3250;BME280;1637;42.020;23.992;2022-10-17T08:27:31;94349.72;;;19.53;43.70
3250;BME280;1637;42.020;23.992;2022-10-17T08:29:59;94351.50;;;19.20;44.63
3250;BME280;1637;42.020;23.992;2022-10-17T08:32:27;94350.38;;;18.51;47.29
3250;BME280;1637;42.020;23.992;2022-10-17T08:34:55;94341.28;;;18.38;46.83
3250;BME280;1637;42.020;23.992;2022-10-17T08:37:22;94339.53;;;18.28;48.47
3250;BME280;1637;42.020;23.992;2022-10-17T08:39:49;94350.44;;;20.26;43.61
3250;BME280;1637;42.020;23.992;2022-10-17T08:42:30;94338.88;;;20.71;41.30
3250;BME280;1637;42.020;23.992;2022-10-17T08:45:11;94337.66;;;21.17;41.43
3250;BME280;1637;42.020;23.992;2022-10-17T08:47:42;94336.69;;;20.49;42.79
3250;BME280;1637;42.020;23.992;2022-10-17T08:50:13;94333.38;;;22.37;39.41
3250;BME280;1637;42.020;23.992;2022-10-17T08:52:45;94328.72;;;21.16;41.44
3250;BME280;1637;42.020;23.992;2022-10-17T08:55:16;94340.97;;;21.66;40.57
3250;BME280;1637;42.020;23.992;2022-10-17T08:57:44;94324.06;;;21.17;41.32
3250;BME280;1637;42.020;23.992;2022-10-17T09:00:17;94322.53;;;20.71;42.03
3250;BME280;1637;42.020;23.992;2022-10-17T09:02:58;94328.25;;;21.76;38.95
3250;BME280;1637;42.020;23.992;2022-10-17T09:05:36;94325.00;;;21.10;39.87
3250;BME280;1637;42.020;23.992;2022-10-17T09:08:15;94325.72;;;20.98;39.93
3250;BME280;1637;42.020;23.992;2022-10-17T09:10:53;94319.97;;;20.80;41.03
3250;BME280;1637;42.020;23.992;2022-10-17T09:13:29;94320.38;;;20.95;40.98
3250;BME280;1637;42.020;23.992;2022-10-17T09:16:13;94321.19;;;20.63;38.40
3250;BME280;1637;42.020;23.992;2022-10-17T09:18:48;94323.31;;;21.00;39.02
3250;BME280;1637;42.020;23.992;2022-10-17T09:21:24;94317.00;;;21.03;37.87
3250;BME280;1637;42.020;23.992;2022-10-17T09:23:55;94322.78;;;21.76;36.66
3250;BME280;1637;42.020;23.992;2022-10-17T09:26:23;94321.13;;;21.66;34.75
3250;BME280;1637;42.020;23.992;2022-10-17T09:28:53;94324.78;;;22.13;32.36
3250;BME280;1637;42.020;23.992;2022-10-17T09:31:27;94322.72;;;21.38;33.43
3250;BME280;1637;42.020;23.992;2022-10-17T09:33:56;94307.97;;;19.96;36.58
3250;BME280;1637;42.020;23.992;2022-10-17T09:36:28;94307.66;;;19.58;36.57
3250;BME280;1637;42.020;23.992;2022-10-17T09:38:56;94306.06;;;20.13;34.02
3250;BME280;1637;42.020;23.992;2022-10-17T09:41:27;94309.72;;;20.55;35.54
3250;BME280;1637;42.020;23.992;2022-10-17T09:43:56;94299.66;;;20.68;34.92
3250;BME280;1637;42.020;23.992;2022-10-17T09:46:30;94302.97;;;20.59;35.05
3250;BME280;1637;42.020;23.992;2022-10-17T09:49:04;94299.50;;;20.43;33.71
3250;BME280;1637;42.020;23.992;2022-10-17T09:51:32;94297.53;;;20.76;33.09
3250;BME280;1637;42.020;23.992;2022-10-17T09:54:02;94307.13;;;21.09;32.90
3250;BME280;1637;42.020;23.992;2022-10-17T09:56:29;94287.69;;;20.33;32.52
3250;BME280;1637;42.020;23.992;2022-10-17T09:58:56;94289.94;;;19.70;33.51
3250;BME280;1637;42.020;23.992;2022-10-17T10:01:26;94283.56;;;19.40;34.03
3250;BME280;1637;42.020;23.992;2022-10-17T10:04:10;94290.72;;;19.86;34.75
3250;BME280;1637;42.020;23.992;2022-10-17T10:06:37;94290.94;;;19.60;34.61
3250;BME280;1637;42.020;23.992;2022-10-17T10:09:05;94275.78;;;19.95;34.72
3250;BME280;1637;42.020;23.992;2022-10-17T10:11:46;94284.06;;;18.52;35.71
3250;BME280;1637;42.020;23.992;2022-10-17T10:14:20;94282.03;;;19.39;35.92
3250;BME280;1637;42.020;23.992;2022-10-17T10:16:49;94286.94;;;20.33;35.10
3250;BME280;1637;42.020;23.992;2022-10-17T10:19:28;94280.50;;;19.58;32.75
3250;BME280;1637;42.020;23.992;2022-10-17T10:21:56;94273.03;;;19.62;33.26
3250;BME280;1637;42.020;23.992;2022-10-17T10:24:24;94275.41;;;19.60;34.68
3250;BME280;1637;42.020;23.992;2022-10-17T10:26:52;94262.53;;;19.44;35.31
3250;BME280;1637;42.020;23.992;2022-10-17T10:29:27;94273.22;;;19.87;33.61
3250;BME280;1637;42.020;23.992;2022-10-17T10:32:05;94269.59;;;20.10;34.13
3250;BME280;1637;42.020;23.992;2022-10-17T10:34:34;94276.94;;;19.61;31.05
3250;BME280;1637;42.020;23.992;2022-10-17T10:37:02;94267.59;;;19.42;31.92
3250;BME280;1637;42.020;23.992;2022-10-17T10:39:37;94262.22;;;19.03;31.82
3250;BME280;1637;42.020;23.992;2022-10-17T10:42:17;94257.06;;;19.80;30.73
3250;BME280;1637;42.020;23.992;2022-10-17T10:44:45;94263.13;;;20.04;31.42
3250;BME280;1637;42.020;23.992;2022-10-17T10:47:19;94253.44;;;20.03;31.76
3250;BME280;1637;42.020;23.992;2022-10-17T10:49:47;94259.06;;;20.12;32.06
3250;BME280;1637;42.020;23.992;2022-10-17T10:52:22;94268.09;;;19.57;32.47
3250;BME280;1637;42.020;23.992;2022-10-17T10:54:55;94254.69;;;19.82;31.80
3250;BME280;1637;42.020;23.992;2022-10-17T10:57:28;94251.69;;;19.25;33.25
3250;BME280;1637;42.020;23.992;2022-10-17T11:00:07;94252.31;;;19.12;32.73
3250;BME280;1637;42.020;23.992;2022-10-17T11:02:44;94254.53;;;19.73;32.53
3250;BME280;1637;42.020;23.992;2022-10-17T11:05:16;94247.75;;;18.70;30.76
3250;BME280;1637;42.020;23.992;2022-10-17T11:07:51;94249.03;;;19.21;30.54
3250;BME280;1637;42.020;23.992;2022-10-17T11:10:23;94244.09;;;19.16;31.40
3250;BME280;1637;42.020;23.992;2022-10-17T11:12:56;94247.03;;;19.05;32.55
3250;BME280;1637;42.020;23.992;2022-10-17T11:15:30;94246.78;;;19.36;31.80
3250;BME280;1637;42.020;23.992;2022-10-17T11:18:02;94238.47;;;19.43;30.96
3250;BME280;1637;42.020;23.992;2022-10-17T11:20:37;94240.28;;;19.49;31.62
3250;BME280;1637;42.020;23.992;2022-10-17T11:23:15;94244.31;;;19.25;30.18
3250;BME280;1637;42.020;23.992;2022-10-17T11:25:46;94246.63;;;19.07;29.53
3250;BME280;1637;42.020;23.992;2022-10-17T11:28:16;94239.50;;;18.93;29.09
3250;BME280;1637;42.020;23.992;2022-10-17T11:30:50;94259.56;;;18.60;29.41
3250;BME280;1637;42.020;23.992;2022-10-17T11:33:24;94240.94;;;18.58;28.41
3250;BME280;1637;42.020;23.992;2022-10-17T11:35:56;94217.44;;;18.71;29.00
3250;BME280;1637;42.020;23.992;2022-10-17T11:38:34;94230.38;;;18.44;28.95
3250;BME280;1637;42.020;23.992;2022-10-17T11:41:04;94225.13;;;18.10;30.03
3250;BME280;1637;42.020;23.992;2022-10-17T11:43:36;94225.13;;;18.33;29.43
3250;BME280;1637;42.020;23.992;2022-10-17T11:46:11;94217.34;;;18.12;28.79
3250;BME280;1637;42.020;23.992;2022-10-17T11:48:46;94223.69;;;18.05;29.51
3250;BME280;1637;42.020;23.992;2022-10-17T11:51:15;94216.78;;;18.24;29.57
3250;BME280;1637;42.020;23.992;2022-10-17T11:53:46;94230.34;;;18.24;29.20
3250;BME280;1637;42.020;23.992;2022-10-17T11:56:18;94218.28;;;18.48;29.01
3250;BME280;1637;42.020;23.992;2022-10-17T11:58:51;94222.28;;;18.64;28.01
3250;BME280;1637;42.020;23.992;2022-10-17T12:01:25;94220.75;;;18.63;28.01
3250;BME280;1637;42.020;23.992;2022-10-17T12:04:14;94212.63;;;18.39;28.80
3250;BME280;1637;42.020;23.992;2022-10-17T12:06:51;94203.91;;;18.28;29.05
3250;BME280;1637;42.020;23.992;2022-10-17T12:09:28;94221.03;;;18.25;27.34
3250;BME280;1637;42.020;23.992;2022-10-17T12:11:59;94215.25;;;18.23;27.59
3250;BME280;1637;42.020;23.992;2022-10-17T12:14:38;94207.28;;;18.12;29.54
3250;BME280;1637;42.020;23.992;2022-10-17T12:17:22;94214.53;;;18.19;29.87
3250;BME280;1637;42.020;23.992;2022-10-17T12:19:52;94212.13;;;18.44;29.15
3250;BME280;1637;42.020;23.992;2022-10-17T12:22:23;94216.25;;;18.52;28.07
3250;BME280;1637;42.020;23.992;2022-10-17T12:24:59;94211.44;;;18.40;28.61
3250;BME280;1637;42.020;23.992;2022-10-17T12:27:38;94208.03;;;18.13;28.42
3250;BME280;1637;42.020;23.992;2022-10-17T12:30:17;94189.72;;;17.97;29.59
3250;BME280;1637;42.020;23.992;2022-10-17T12:33:04;94184.38;;;17.94;30.20
3250;BME280;1637;42.020;23.992;2022-10-17T12:35:34;94213.75;;;18.18;29.73
3250;BME280;1637;42.020;23.992;2022-10-17T12:38:20;94216.31;;;17.82;29.29
3250;BME280;1637;42.020;23.992;2022-10-17T12:40:53;94210.81;;;18.09;29.36
3250;BME280;1637;42.020;23.992;2022-10-17T12:43:50;94216.78;;;18.24;30.07
3250;BME280;1637;42.020;23.992;2022-10-17T12:46:43;94213.72;;;18.22;28.81
3250;BME280;1637;42.020;23.992;2022-10-17T12:49:36;94215.72;;;17.95;29.40
3250;BME280;1637;42.020;23.992;2022-10-17T12:55:11;94208.66;;;18.01;31.22
3250;BME280;1637;42.020;23.992;2022-10-17T12:57:50;94220.06;;;18.12;30.17
3250;BME280;1637;42.020;23.992;2022-10-17T13:00:22;94215.56;;;18.05;29.41
3250;BME280;1637;42.020;23.992;2022-10-17T13:02:53;94211.72;;;18.03;28.88
3250;BME280;1637;42.020;23.992;2022-10-17T13:05:26;94223.84;;;17.95;28.62
3250;BME280;1637;42.020;23.992;2022-10-17T13:07:54;94220.72;;;17.96;28.59
3250;BME280;1637;42.020;23.992;2022-10-17T13:10:25;94200.78;;;17.60;28.84
3250;BME280;1637;42.020;23.992;2022-10-17T13:13:09;94225.88;;;17.64;29.11
3250;BME280;1637;42.020;23.992;2022-10-17T13:15:39;94224.09;;;17.80;28.01
3250;BME280;1637;42.020;23.992;2022-10-17T13:18:12;94224.44;;;17.82;28.29
3250;BME280;1637;42.020;23.992;2022-10-17T13:20:42;94225.63;;;17.81;29.03
3250;BME280;1637;42.020;23.992;2022-10-17T13:23:21;94231.34;;;17.87;27.49
3250;BME280;1637;42.020;23.992;2022-10-17T13:26:01;94244.03;;;17.67;26.85
3250;BME280;1637;42.020;23.992;2022-10-17T13:28:28;94233.19;;;17.67;27.49
3250;BME280;1637;42.020;23.992;2022-10-17T13:30:55;94232.09;;;17.64;27.24
3250;BME280;1637;42.020;23.992;2022-10-17T13:33:30;94231.06;;;17.51;26.86
3250;BME280;1637;42.020;23.992;2022-10-17T13:35:59;94238.03;;;17.52;27.77